Airfield :
LOGIN :

Register | Disclaimer

   EN    FR    IT 

 










Legend :    VFR   Marginal VFR   IFR   Intensive IFR   Very Intensive IFR
Visi :
Ceiling :
>= 8 km
>= 3000ft
5 to 8 km
1000 to 3000 ft
1500m to 5 km
500 to 1000 ft
800 to 1500m
200 to 500 ft
< 800m
< 200 ft
Symbols :   Thunderstorms  Fog  Heavy snow  Heavy precipitations  Wind > 20 kt
SIGMETs :     Misc.  Thunderstorms  Icing  Turbulence  Mountain Waves  Volcanic Ashes






- Airport Elevation : 1302 ft
- IATA code : GNB


LFLS - Grenoble / St. Geoirs

CURRENT METAR :
  • 280430Z AUTO 06007KT 9999 -RADZ FEW017 BKN026 BKN046 08/07 Q1016 NOSIG

EXPIRED METARs :
  • 280400Z AUTO 06006KT 9999 -RA SCT023/// BKN029/// BKN045/// ///TCU 08/07 Q1016 BECMG OVC045
  • 280330Z AUTO 08005KT 9999 4800 RA BKN043/// OVC050/// ///TCU 09/07 Q1016 BECMG NSW OVC045
  • 280300Z AUTO 06005KT 030V090 9999 -RA BKN043/// BKN058/// OVC070/// ///TCU 09/07 Q1016 BECMG OVC045
  • 280230Z AUTO 07005KT 030V100 9999 FEW052/// SCT062/// BKN076/// ///TCU 08/07 Q1015 BECMG OVC045
  • 280200Z AUTO 06006KT 9999 -RA BKN052/// BKN064/// OVC074/// ///TCU 09/06 Q1016

TAF TAF LFLS
Valid from the 28 at 03:00 until the 29 at 03:00 UTC


280200Z 2803/2903 07007KT 9999 OVC045
TEMPO 2803/2805 -RA
BECMG 2806/2808 SCT060
BECMG 2810/2813 20007KT CAVOK
BECMG 2819/2822 VRB03KT
ATIS : +33 4 76 65 55 89



MET'MAP, your aeronautical weather chart ! - Copyright ORBIFLY December 2007 - Disclaimer

ORBIFLY MET'MAP TEAM :

Programming & Development : Alexandra Zaïnal
Concept & original design : Baudouin d'Aumeries
Assistance for programming : Marc-Olivier Méhu
Technical & hardware support : Manuel Goepfert

Contact : metmap@orbifly.com




SOURCES & CREDITS :

   NOAA